Time;durP1;ratioP1;P1;durP2;ratioP2;P2;SDS_P1;SDS_P2;PMS_P1;PMS_P2;Temp;Humidity;BMP_temperature;BMP_pressure;BME280_temperature;BME280_humidity;BME280_pressure;Samples;Min_cycle;Max_cycle;Signal;HPM_P1;HPM_P2
2023/01/21 00:01:04;;;;;;;;;;;;;;;;;;4451631;32;20119;-73
2023/01/21 00:03:30;;;;;;;87.25;39.05;;;;;;;;;;4451560;32;20342;-75
2023/01/21 00:05:57;;;;;;;;;;;;;;;;;;4452789;32;20120;-74
2023/01/21 00:08:22;;;;;;;89.32;40.40;;;;;;;;;;4452817;32;19933;-75
2023/01/21 00:10:47;;;;;;;89.07;41.53;;;;;;;;;;4439400;32;20074;-75
2023/01/21 00:13:12;;;;;;;;;;;;;;;;;;4455612;32;20077;-75
2023/01/21 00:15:37;;;;;;;85.28;39.78;;;;;;;;;;4459446;32;19932;-74
2023/01/21 00:18:02;;;;;;;;;;;;;;;;;;4437907;32;20066;-75
2023/01/21 00:20:28;;;;;;;88.60;38.40;;;;;;;;;;4451350;32;19951;-74
2023/01/21 00:22:53;;;;;;;93.15;40.00;;;;;;;;;;4437034;32;20081;-74
2023/01/21 00:25:18;;;;;;;88.35;40.95;;;;;;;;;;4438846;32;20053;-74
2023/01/21 00:27:44;;;;;;;89.97;42.35;;;;;;;;;;4437238;32;20384;-74
2023/01/21 00:30:09;;;;;;;94.13;41.15;;;;;;;;;;4451162;32;20021;-74
2023/01/21 00:32:34;;;;;;;96.78;42.22;;;;;;;;;;4451314;32;20048;-74
2023/01/21 00:34:59;;;;;;;87.32;41.80;;;;;;;;;;4438448;32;20061;-74
2023/01/21 00:37:25;;;;;;;92.40;42.45;;;;;;;;;;4450658;32;20025;-74
2023/01/21 00:39:50;;;;;;;91.85;40.97;;;;;;;;;;4450997;32;20079;-74
2023/01/21 00:42:15;;;;;;;93.50;40.85;;;;;;;;;;4452755;32;20033;-73
2023/01/21 00:44:40;;;;;;;88.93;39.85;;;;;;;;;;4451128;32;20415;-74
2023/01/21 00:47:06;;;;;;;;;;;;;;;;;;4436913;32;20041;-74
2023/01/21 00:49:31;;;;;;;93.05;38.30;;;;;;;;;;4450436;32;19944;-74
2023/01/21 00:51:56;;;;;;;92.15;41.80;;;;;;;;;;4451095;32;20025;-74
2023/01/21 00:54:22;;;;;;;98.25;42.20;;;;;;;;;;4440097;32;20123;-74
2023/01/21 00:56:47;;;;;;;93.93;40.55;;;;;;;;;;4453931;32;20131;-74
2023/01/21 00:59:12;;;;;;;88.15;40.20;;;;;;;;;;4440116;32;20440;-74
2023/01/21 01:01:37;;;;;;;81.55;38.00;;;;;;;;;;4453895;32;20040;-74
2023/01/21 01:04:04;;;;;;;87.07;37.55;;;;;;;;;;4453604;32;20081;-75
2023/01/21 01:06:30;;;;;;;87.28;39.17;;;;;;;;;;4453931;32;20022;-74
2023/01/21 01:08:57;;;;;;;;;;;;;;;;;;4439752;32;20043;-73
2023/01/21 01:11:24;;;;;;;91.10;40.58;;;;;;;;;;4439446;32;19932;-74
2023/01/21 01:13:49;;;;;;;77.55;35.47;;;;;;;;;;4455204;32;20051;-75
2023/01/21 01:16:15;;;;;;;;;;;;;;;;;;4454825;32;20362;-74
2023/01/21 01:18:40;;;;;;;81.47;37.10;;;;;;;;;;4439554;32;20345;-74
2023/01/21 01:21:09;;;;;;;80.72;36.22;;;;;;;;;;4439626;32;20067;-74
2023/01/21 01:23:34;;;;;;;79.82;35.03;;;;;;;;;;4455213;32;20071;-75
2023/01/21 01:25:59;;;;;;;;;;;;;;;;;;4440097;32;20088;-75
2023/01/21 01:28:25;;;;;;;85.72;37.78;;;;;;;;;;4453649;32;19936;-75
2023/01/21 01:30:50;;;;;;;;;;;;;;;;;;4454283;32;20208;-75
2023/01/21 01:33:15;;;;;;;83.47;36.13;;;;;;;;;;4454062;32;19940;-74
2023/01/21 01:35:40;;;;;;;;;;;;;;;;;;4453515;32;20572;-74
2023/01/21 01:38:08;;;;;;;80.40;38.30;;;;;;;;;;4439563;32;19973;-74
2023/01/21 01:40:33;;;;;;;76.40;36.05;;;;;;;;;;4455282;32;20041;-74
2023/01/21 01:42:58;;;;;;;;;;;;;;;;;;4455521;32;20423;-74
2023/01/21 01:45:24;;;;;;;78.68;34.63;;;;;;;;;;4456948;32;20283;-74
2023/01/21 01:47:49;;;;;;;;;;;;;;;;;;4454630;32;20125;-74
2023/01/21 01:50:16;;;;;;;74.40;35.88;;;;;;;;;;4438824;32;19996;-75
2023/01/21 01:52:42;;;;;;;80.10;37.13;;;;;;;;;;4453010;32;20036;-75
2023/01/21 01:55:07;;;;;;;;;;;;;;;;;;4454030;32;20068;-74
2023/01/21 01:57:35;;;;;;;74.30;34.03;;;;;;;;;;4453061;32;19936;-74
2023/01/21 02:00:01;;;;;;;75.68;35.45;;;;;;;;;;4453432;32;20150;-74
2023/01/21 02:02:26;;;;;;;76.22;34.70;;;;;;;;;;4439629;32;20061;-74
2023/01/21 02:04:51;;;;;;;;;;;;;;;;;;4452576;32;20093;-74
2023/01/21 02:07:19;;;;;;;78.75;35.13;;;;;;;;;;4438122;32;20008;-74
2023/01/21 02:09:45;;;;;;;71.10;35.53;;;;;;;;;;4438521;32;20121;-74
2023/01/21 02:12:10;;;;;;;;;;;;;;;;;;4454966;32;20064;-75
2023/01/21 02:14:41;;;;;;;74.20;35.78;;;;;;;;;;4453958;32;19972;-75
2023/01/21 02:17:09;;;;;;;78.15;36.90;;;;;;;;;;4453298;32;20526;-75
2023/01/21 02:19:41;;;;;;;79.90;35.83;;;;;;;;;;4452442;32;20082;-74
2023/01/21 02:22:41;;;;;;;83.35;37.53;;;;;;;;;;4454112;32;20380;-75
2023/01/21 02:25:06;;;;;;;71.12;35.25;;;;;;;;;;4361601;32;20039;-75
2023/01/21 02:27:31;;;;;;;;;;;;;;;;;;4436343;32;20025;-75
2023/01/21 02:30:09;;;;;;;77.43;33.45;;;;;;;;;;4453264;32;19974;-75
2023/01/21 02:32:34;;;;;;;80.68;36.35;;;;;;;;;;4453022;32;20127;-75
2023/01/21 02:35:00;;;;;;;;;;;;;;;;;;4453644;32;20415;-74
2023/01/21 02:37:32;;;;;;;74.07;36.58;;;;;;;;;;4452914;32;19940;-74
2023/01/21 02:40:20;;;;;;;74.62;35.45;;;;;;;;;;4453924;32;20030;-75
2023/01/21 02:42:47;;;;;;;74.87;34.33;;;;;;;;;;4442218;32;20056;-74
2023/01/21 02:45:31;;;;;;;71.32;34.05;;;;;;;;;;4438093;32;20029;-74
2023/01/21 02:47:56;;;;;;;75.43;35.42;;;;;;;;;;4452890;32;20118;-74
2023/01/21 02:50:21;;;;;;;;;;;;;;;;;;4452894;32;20033;-74
2023/01/21 02:52:57;;;;;;;77.10;35.83;;;;;;;;;;4439644;32;19990;-74
2023/01/21 02:55:25;;;;;;;84.05;35.97;;;;;;;;;;4438574;32;20402;-74
2023/01/21 02:57:53;;;;;;;83.97;36.03;;;;;;;;;;4451828;32;20060;-74
2023/01/21 03:00:25;;;;;;;77.10;35.08;;;;;;;;;;4452349;32;20028;-74
2023/01/21 03:02:50;;;;;;;79.12;35.95;;;;;;;;;;4437188;32;20379;-73
2023/01/21 03:05:15;;;;;;;;;;;;;;;;;;4440216;32;20081;-74
2023/01/21 03:07:45;;;;;;;74.62;35.53;;;;;;;;;;4451920;32;19932;-74
2023/01/21 03:10:25;;;;;;;82.50;35.88;;;;;;;;;;4438684;32;20214;-73
2023/01/21 03:13:01;;;;;;;82.93;35.38;;;;;;;;;;4454141;32;20112;-75
2023/01/21 03:18:23;;;;;;;88.37;37.47;;;;;;;;;;4453805;32;20036;-73
2023/01/21 03:20:54;;;;;;;84.50;38.45;;;;;;;;;;4437985;32;20036;-73
2023/01/21 03:23:23;;;;;;;80.57;37.15;;;;;;;;;;4453681;32;20021;-73
2023/01/21 03:25:49;;;;;;;83.95;36.90;;;;;;;;;;4452439;32;20120;-74
2023/01/21 03:28:18;;;;;;;78.35;38.35;;;;;;;;;;4451924;32;20435;-74
2023/01/21 03:30:46;;;;;;;79.80;37.58;;;;;;;;;;4436798;32;20037;-74
2023/01/21 03:33:12;;;;;;;94.75;40.35;;;;;;;;;;4452443;32;20119;-74
2023/01/21 03:35:40;;;;;;;91.18;39.20;;;;;;;;;;4452128;32;20090;-74
2023/01/21 03:38:09;;;;;;;82.05;38.28;;;;;;;;;;4451213;32;20062;-74
2023/01/21 03:40:47;;;;;;;78.12;35.05;;;;;;;;;;4441084;32;20025;-74
2023/01/21 03:43:12;;;;;;;93.85;40.67;;;;;;;;;;4435358;32;20022;-74
2023/01/21 03:45:37;;;;;;;;;;;;;;;;;;4436803;32;20045;-74
2023/01/21 03:48:07;;;;;;;82.10;39.55;;;;;;;;;;4435386;32;19941;-74
2023/01/21 03:50:36;;;;;;;91.97;39.97;;;;;;;;;;4436988;32;20141;-75
2023/01/21 03:53:01;;;;;;;79.50;38.30;;;;;;;;;;4435311;32;20195;-74
2023/01/21 03:55:26;;;;;;;;;;;;;;;;;;4436785;32;20053;-74
2023/01/21 03:57:51;;;;;;;79.70;36.35;;;;;;;;;;4435051;32;20346;-74
2023/01/21 04:00:16;;;;;;;;;;;;;;;;;;4439635;32;20173;-74
2023/01/21 04:02:42;;;;;;;83.44;36.70;;;;;;;;;;4436960;32;19988;-73
2023/01/21 04:05:07;;;;;;;85.53;38.17;;;;;;;;;;4437046;32;20085;-73
2023/01/21 04:07:32;;;;;;;91.25;38.95;;;;;;;;;;4438528;32;20026;-73
2023/01/21 04:09:57;;;;;;;93.03;40.12;;;;;;;;;;4436933;32;20055;-74
2023/01/21 04:12:23;;;;;;;88.62;40.97;;;;;;;;;;4451487;32;20029;-74
2023/01/21 04:14:48;;;;;;;;;;;;;;;;;;4437318;32;20375;-73
2023/01/21 04:17:13;;;;;;;91.80;40.53;;;;;;;;;;4437173;32;19936;-73
2023/01/21 04:19:38;;;;;;;;;;;;;;;;;;4453490;32;20191;-74
2023/01/21 04:22:03;;;;;;;88.10;37.83;;;;;;;;;;4451137;32;19963;-74
2023/01/21 04:24:28;;;;;;;;;;;;;;;;;;4451380;32;20025;-75
2023/01/21 04:26:54;;;;;;;88.30;38.92;;;;;;;;;;4452858;32;19932;-75
2023/01/21 04:29:19;;;;;;;;;;;;;;;;;;4453940;32;20155;-74
2023/01/21 04:31:45;;;;;;;96.60;39.97;;;;;;;;;;4441028;32;19988;-74
2023/01/21 04:34:10;;;;;;;101.68;40.40;;;;;;;;;;4454500;32;20021;-74
2023/01/21 04:36:35;;;;;;;96.35;39.30;;;;;;;;;;4455265;32;20025;-74
2023/01/21 04:39:00;;;;;;;91.97;39.92;;;;;;;;;;4438926;32;20136;-74
2023/01/21 04:41:26;;;;;;;98.20;41.67;;;;;;;;;;4451014;32;20030;-74
2023/01/21 04:43:51;;;;;;;;;;;;;;;;;;4439201;32;20025;-74
2023/01/21 04:46:16;;;;;;;91.63;37.92;;;;;;;;;;4445054;32;20266;-75
2023/01/21 04:48:41;;;;;;;96.03;41.42;;;;;;;;;;4449881;32;20142;-74
2023/01/21 04:51:06;;;;;;;93.25;39.50;;;;;;;;;;4425927;32;20133;-74
2023/01/21 04:53:32;;;;;;;94.32;39.92;;;;;;;;;;4425126;32;20047;-74
2023/01/21 04:55:57;;;;;;;93.32;40.40;;;;;;;;;;4440910;32;20043;-74
2023/01/21 04:58:22;;;;;;;;;;;;;;;;;;4439602;32;20022;-74
2023/01/21 05:00:47;;;;;;;94.18;39.72;;;;;;;;;;4443552;32;19936;-74
2023/01/21 05:03:12;;;;;;;;;;;;;;;;;;4439773;32;20171;-74
2023/01/21 05:05:38;;;;;;;91.25;39.80;;;;;;;;;;4439553;32;20301;-74
2023/01/21 05:08:03;;;;;;;;;;;;;;;;;;4456131;32;20127;-75
2023/01/21 05:10:28;;;;;;;88.75;36.55;;;;;;;;;;4439893;32;20010;-74
2023/01/21 05:12:53;;;;;;;;;;;;;;;;;;4454291;32;20440;-74
2023/01/21 05:15:19;;;;;;;99.28;40.12;;;;;;;;;;4454643;32;19937;-74
2023/01/21 05:17:44;;;;;;;101.35;41.88;;;;;;;;;;4440791;32;20021;-73
2023/01/21 05:20:09;;;;;;;99.55;41.47;;;;;;;;;;4453483;32;20048;-73
2023/01/21 05:22:35;;;;;;;110.18;42.58;;;;;;;;;;4453796;32;20307;-73
2023/01/21 05:25:00;;;;;;;100.43;41.15;;;;;;;;;;4439280;32;20120;-73
2023/01/21 05:27:26;;;;;;;109.32;42.50;;;;;;;;;;4439880;32;20085;-73
2023/01/21 05:29:51;;;;;;;94.10;40.83;;;;;;;;;;4453840;32;20397;-73
2023/01/21 05:32:17;;;;;;;100.35;42.92;;;;;;;;;;4439990;32;20086;-74
2023/01/21 05:34:42;;;;;;;103.53;42.05;;;;;;;;;;4453654;32;20033;-73
2023/01/21 05:37:07;;;;;;;93.35;40.75;;;;;;;;;;4454180;32;20078;-74
2023/01/21 05:39:32;;;;;;;;;;;;;;;;;;4452545;32;20088;-74
2023/01/21 05:41:57;;;;;;;109.72;41.00;;;;;;;;;;4452800;32;19953;-74
2023/01/21 05:44:22;;;;;;;;;;;;;;;;;;4453552;32;20124;-72
2023/01/21 05:46:47;;;;;;;94.95;36.90;;;;;;;;;;4454289;32;19943;-73
2023/01/21 05:49:13;;;;;;;;;;;;;;;;;;4454075;32;20147;-73
2023/01/21 05:51:38;;;;;;;92.08;39.72;;;;;;;;;;4439006;32;19956;-73
2023/01/21 05:54:03;;;;;;;101.55;40.95;;;;;;;;;;4453854;32;20025;-73
2023/01/21 05:56:28;;;;;;;;;;;;;;;;;;4440124;32;20033;-72
2023/01/21 05:58:53;;;;;;;100.07;39.53;;;;;;;;;;4454411;32;19984;-73
2023/01/21 06:01:19;;;;;;;107.60;42.88;;;;;;;;;;4454206;32;20059;-73
2023/01/21 06:03:44;;;;;;;;;;;;;;;;;;4454962;32;20032;-73
2023/01/21 06:06:09;;;;;;;101.60;40.63;;;;;;;;;;4453066;32;19932;-73
2023/01/21 06:08:34;;;;;;;;;;;;;;;;;;4454303;32;20120;-74
2023/01/21 06:10:59;;;;;;;109.12;43.58;;;;;;;;;;4455301;32;20200;-73
2023/01/21 06:13:24;;;;;;;;;;;;;;;;;;4453966;32;20112;-73
2023/01/21 06:15:52;;;;;;;115.53;42.08;;;;;;;;;;4456600;32;19932;-74
2023/01/21 06:18:18;;;;;;;114.60;45.60;;;;;;;;;;4458658;32;20461;-73
2023/01/21 06:20:43;;;;;;;114.70;43.60;;;;;;;;;;4440255;32;20029;-73
2023/01/21 06:23:08;;;;;;;114.85;45.58;;;;;;;;;;4454118;32;20025;-74
2023/01/21 06:25:33;;;;;;;113.95;45.00;;;;;;;;;;4452888;32;20407;-74
2023/01/21 06:28:00;;;;;;;122.25;44.97;;;;;;;;;;4452527;32;20029;-74
2023/01/21 06:30:25;;;;;;;116.22;43.92;;;;;;;;;;4439623;32;20025;-75
2023/01/21 06:32:50;;;;;;;113.37;46.13;;;;;;;;;;4439544;32;20469;-74
2023/01/21 06:35:16;;;;;;;114.88;45.05;;;;;;;;;;4452398;32;20029;-74
2023/01/21 06:37:41;;;;;;;111.80;45.22;;;;;;;;;;4438374;32;20410;-73
2023/01/21 06:40:07;;;;;;;136.25;49.53;;;;;;;;;;4452948;32;20054;-73
2023/01/21 06:42:32;;;;;;;115.72;45.55;;;;;;;;;;4438340;32;20016;-73
2023/01/21 06:44:57;;;;;;;;;;;;;;;;;;4453456;32;20047;-72
2023/01/21 06:47:23;;;;;;;130.43;47.17;;;;;;;;;;4437846;32;19946;-74
2023/01/21 06:49:48;;;;;;;118.78;46.47;;;;;;;;;;4438045;32;20141;-73
2023/01/21 06:52:13;;;;;;;;;;;;;;;;;;4453632;32;20017;-73
2023/01/21 06:54:40;;;;;;;119.62;46.83;;;;;;;;;;4453369;32;19944;-73
2023/01/21 06:57:05;;;;;;;132.07;49.65;;;;;;;;;;4438208;32;20041;-74
2023/01/21 06:59:30;;;;;;;117.87;45.55;;;;;;;;;;4438973;32;20084;-74
2023/01/21 07:01:57;;;;;;;;;;;;;;;;;;4439165;32;20026;-74
2023/01/21 07:04:23;;;;;;;114.00;44.67;;;;;;;;;;4454797;32;19932;-74
2023/01/21 07:06:48;;;;;;;113.12;45.50;;;;;;;;;;4455570;32;20113;-73
2023/01/21 07:09:13;;;;;;;117.50;47.58;;;;;;;;;;4455293;32;20055;-73
2023/01/21 07:11:39;;;;;;;113.95;44.25;;;;;;;;;;4441429;32;20025;-75
2023/01/21 07:14:04;;;;;;;;;;;;;;;;;;4456632;32;20130;-75
2023/01/21 07:16:29;;;;;;;131.77;47.60;;;;;;;;;;4455589;32;19955;-74
2023/01/21 07:18:54;;;;;;;;;;;;;;;;;;4454667;32;20184;-74
2023/01/21 07:21:19;;;;;;;123.43;47.10;;;;;;;;;;4445212;32;19970;-74
2023/01/21 07:23:45;;;;;;;;;;;;;;;;;;4425200;32;20159;-74
2023/01/21 07:26:11;;;;;;;113.78;43.45;;;;;;;;;;4446955;32;20111;-74
2023/01/21 07:28:36;;;;;;;125.20;47.25;;;;;;;;;;4455664;32;20018;-74
2023/01/21 07:31:01;;;;;;;;;;;;;;;;;;4454248;32;20425;-74
2023/01/21 07:33:26;;;;;;;120.93;45.25;;;;;;;;;;4453738;32;19933;-74
2023/01/21 07:35:51;;;;;;;;;;;;;;;;;;4453584;32;20113;-74
2023/01/21 07:38:16;;;;;;;112.55;44.97;;;;;;;;;;4452211;32;19940;-74
2023/01/21 07:40:41;;;;;;;;;;;;;;;;;;4453465;32;20120;-75
2023/01/21 07:43:07;;;;;;;119.60;44.25;;;;;;;;;;4453158;32;19933;-74
2023/01/21 07:45:32;;;;;;;113.85;45.95;;;;;;;;;;4439781;32;20135;-75
2023/01/21 07:47:58;;;;;;;124.10;45.42;;;;;;;;;;4459302;32;20378;-75
2023/01/21 07:50:23;;;;;;;131.57;48.60;;;;;;;;;;4455491;32;20041;-74
2023/01/21 07:52:48;;;;;;;123.22;47.08;;;;;;;;;;4452252;32;20407;-74
2023/01/21 07:55:13;;;;;;;117.50;47.30;;;;;;;;;;4437221;32;20067;-74
2023/01/21 07:57:38;;;;;;;121.97;46.63;;;;;;;;;;4452350;32;20101;-73
2023/01/21 08:00:04;;;;;;;;;;;;;;;;;;4452811;32;20021;-74
2023/01/21 08:02:29;;;;;;;127.12;47.14;;;;;;;;;;4450571;32;19940;-75
2023/01/21 08:04:54;;;;;;;112.78;45.45;;;;;;;;;;4450499;32;20059;-73
2023/01/21 08:07:19;;;;;;;;;;;;;;;;;;4451294;32;20030;-73
2023/01/21 08:09:44;;;;;;;128.27;47.92;;;;;;;;;;4452278;32;19943;-74
2023/01/21 08:12:09;;;;;;;;;;;;;;;;;;4451106;32;20203;-74
2023/01/21 08:14:37;;;;;;;118.37;46.03;;;;;;;;;;4437282;32;19936;-73
2023/01/21 08:17:02;;;;;;;115.28;41.47;;;;;;;;;;4451132;32;20124;-74
2023/01/21 08:19:27;;;;;;;;;;;;;;;;;;4452354;32;20056;-74
2023/01/21 08:21:52;;;;;;;124.18;48.20;;;;;;;;;;4429106;32;19956;-73
2023/01/21 08:24:17;;;;;;;145.30;50.47;;;;;;;;;;4439222;32;20186;-73
2023/01/21 08:26:43;;;;;;;125.25;48.63;;;;;;;;;;4437458;32;20026;-73
2023/01/21 08:29:08;;;;;;;135.10;50.42;;;;;;;;;;4437196;32;20045;-74
2023/01/21 08:31:33;;;;;;;;;;;;;;;;;;4451571;32;20056;-74
2023/01/21 08:33:59;;;;;;;120.72;45.65;;;;;;;;;;4451313;32;19944;-73
2023/01/21 08:36:24;;;;;;;126.38;48.35;;;;;;;;;;4452474;32;20074;-74
2023/01/21 08:38:49;;;;;;;;;;;;;;;;;;4452456;32;20080;-74
2023/01/21 08:41:15;;;;;;;126.25;47.47;;;;;;;;;;4451501;32;20359;-74
2023/01/21 08:43:40;;;;;;;;;;;;;;;;;;4452243;32;20120;-74
2023/01/21 08:46:05;;;;;;;143.52;48.45;;;;;;;;;;4437979;32;19941;-74
2023/01/21 08:48:31;;;;;;;143.73;50.88;;;;;;;;;;4451813;32;20127;-74
2023/01/21 08:50:56;;;;;;;;;;;;;;;;;;4452016;32;20072;-75
2023/01/21 08:53:21;;;;;;;160.76;51.38;;;;;;;;;;4437216;32;19991;-75
2023/01/21 08:55:46;;;;;;;187.45;56.40;;;;;;;;;;4438780;32;20025;-75
2023/01/21 08:58:11;;;;;;;293.60;60.72;;;;;;;;;;4451855;32;20026;-75
2023/01/21 09:00:37;;;;;;;;;;;;;;;;;;4452067;32;20049;-75
2023/01/21 09:03:02;;;;;;;235.42;51.10;;;;;;;;;;4450984;32;19937;-75
2023/01/21 09:05:27;;;;;;;179.40;44.80;;;;;;;;;;4437661;32;20071;-74
2023/01/21 09:07:52;;;;;;;;;;;;;;;;;;4451543;32;20018;-75
2023/01/21 09:13:02;;;;;;;198.57;45.92;;;;;;;;;;4452226;32;20075;-74
2023/01/21 09:15:28;;;;;;;283.75;50.97;;;;;;;;;;4440040;32;20013;-74
2023/01/21 09:17:53;;;;;;;184.35;49.40;;;;;;;;;;4444244;32;20021;-74
2023/01/21 09:20:18;;;;;;;218.00;55.83;;;;;;;;;;4455987;32;20033;-74
2023/01/21 09:22:43;;;;;;;192.48;53.63;;;;;;;;;;4454267;32;20021;-73
2023/01/21 09:25:09;;;;;;;;;;;;;;;;;;4453703;32;20025;-72
2023/01/21 09:27:34;;;;;;;205.52;54.95;;;;;;;;;;4454536;32;20381;-72
2023/01/21 09:29:59;;;;;;;159.90;52.33;;;;;;;;;;4451036;32;20100;-74
2023/01/21 09:32:25;;;;;;;173.25;54.95;;;;;;;;;;4440545;32;20051;-74
2023/01/21 09:34:50;;;;;;;164.50;53.83;;;;;;;;;;4440191;32;20026;-74
2023/01/21 09:37:15;;;;;;;;;;;;;;;;;;4454840;32;20052;-74
2023/01/21 09:39:40;;;;;;;215.14;49.28;;;;;;;;;;4440828;32;20012;-73
2023/01/21 09:42:14;;;;;;;133.57;47.97;;;;;;;;;;4454238;32;20021;-74
2023/01/21 09:44:43;;;;;;;130.73;46.35;;;;;;;;;;4453940;32;20029;-74
2023/01/21 09:47:11;;;;;;;121.00;41.00;;;;;;;;;;4438560;32;20143;-74
2023/01/21 09:49:38;;;;;;;142.75;48.33;;;;;;;;;;4450093;32;20034;-74
2023/01/21 09:52:12;;;;;;;116.32;44.95;;;;;;;;;;4453209;32;20028;-74
2023/01/21 09:54:38;;;;;;;85.35;38.42;;;;;;;;;;4452992;32;20025;-74
2023/01/21 09:57:03;;;;;;;;;;;;;;;;;;4454292;32;20021;-74
2023/01/21 09:59:39;;;;;;;130.55;44.38;;;;;;;;;;4454072;32;19941;-74
2023/01/21 10:02:08;;;;;;;113.10;41.95;;;;;;;;;;4452928;32;20159;-74
2023/01/21 10:04:44;;;;;;;110.65;43.17;;;;;;;;;;4433487;32;20441;-74
2023/01/21 10:07:09;;;;;;;;;;;;;;;;;;4437351;32;20052;-73
2023/01/21 10:09:37;;;;;;;83.03;34.60;;;;;;;;;;4439808;32;19937;-74
2023/01/21 10:12:10;;;;;;;82.28;38.13;;;;;;;;;;4439335;32;20192;-73
2023/01/21 10:14:57;;;;;;;91.65;40.72;;;;;;;;;;4441488;32;20026;-74
2023/01/21 10:17:25;;;;;;;99.22;43.15;;;;;;;;;;4439637;32;20089;-73
2023/01/21 10:19:56;;;;;;;105.40;42.30;;;;;;;;;;4436977;32;20037;-74
2023/01/21 10:22:23;;;;;;;89.78;39.47;;;;;;;;;;4437930;32;20119;-74
2023/01/21 10:24:52;;;;;;;85.95;35.75;;;;;;;;;;4436984;32;20036;-74
2023/01/21 10:27:18;;;;;;;76.05;35.17;;;;;;;;;;4438239;32;20020;-74
2023/01/21 10:29:45;;;;;;;105.60;41.85;;;;;;;;;;4453574;32;20037;-73
2023/01/21 10:32:13;;;;;;;87.70;36.08;;;;;;;;;;4453066;32;20067;-73
2023/01/21 10:34:43;;;;;;;93.45;38.25;;;;;;;;;;4452809;32;20029;-74
2023/01/21 10:37:16;;;;;;;90.72;38.83;;;;;;;;;;4452768;32;20020;-74
2023/01/21 10:39:58;;;;;;;104.63;42.55;;;;;;;;;;4437933;32;20057;-74
2023/01/21 10:42:31;;;;;;;94.22;39.47;;;;;;;;;;4436615;32;20060;-74
2023/01/21 10:45:18;;;;;;;127.43;45.80;;;;;;;;;;4443335;32;20415;-75
2023/01/21 10:47:43;;;;;;;102.93;40.38;;;;;;;;;;4438968;32;20091;-74
2023/01/21 10:50:09;;;;;;;;;;;;;;;;;;4439240;32;20423;-74
2023/01/21 10:52:40;;;;;;;99.37;39.30;;;;;;;;;;4442703;32;19940;-74
2023/01/21 10:55:20;;;;;;;97.88;41.75;;;;;;;;;;4450649;32;20117;-74
2023/01/21 10:58:01;;;;;;;110.88;42.75;;;;;;;;;;4439903;32;20055;-74
2023/01/21 11:00:28;;;;;;;88.45;38.90;;;;;;;;;;4436432;32;20026;-74
2023/01/21 11:02:56;;;;;;;108.47;42.30;;;;;;;;;;4423053;32;20018;-74
2023/01/21 11:05:21;;;;;;;106.60;41.47;;;;;;;;;;4422162;32;20098;-74
2023/01/21 11:07:46;;;;;;;;;;;;;;;;;;4436774;32;20411;-74
2023/01/21 11:10:16;;;;;;;92.85;38.65;;;;;;;;;;4436003;32;19943;-74
2023/01/21 11:12:41;;;;;;;88.80;38.83;;;;;;;;;;4422513;32;20062;-74
2023/01/21 11:15:06;;;;;;;;;;;;;;;;;;4447847;32;20044;-74
2023/01/21 11:17:36;;;;;;;79.15;35.28;;;;;;;;;;4451390;32;19964;-75
2023/01/21 11:20:04;;;;;;;96.47;41.30;;;;;;;;;;4452372;32;20181;-74
2023/01/21 11:22:31;;;;;;;88.75;36.67;;;;;;;;;;4451494;32;20089;-75
2023/01/21 11:24:56;;;;;;;97.65;39.42;;;;;;;;;;4437380;32;20048;-74
2023/01/21 11:27:21;;;;;;;;;;;;;;;;;;4451592;32;20417;-73
2023/01/21 11:29:48;;;;;;;89.35;36.30;;;;;;;;;;4453089;32;20014;-74
2023/01/21 11:32:21;;;;;;;76.65;36.45;;;;;;;;;;4437189;32;20202;-74
2023/01/21 11:34:48;;;;;;;87.75;36.78;;;;;;;;;;4451889;32;20022;-73
2023/01/21 11:37:20;;;;;;;81.75;35.28;;;;;;;;;;4437030;32;20040;-74
2023/01/21 11:40:06;;;;;;;83.60;34.83;;;;;;;;;;4452445;32;20047;-74
2023/01/21 11:42:31;;;;;;;72.55;31.35;;;;;;;;;;4451307;32;20395;-73
2023/01/21 11:44:56;;;;;;;;;;;;;;;;;;4451391;32;20048;-73
2023/01/21 11:47:26;;;;;;;83.40;34.16;;;;;;;;;;4450970;32;20274;-73
2023/01/21 11:49:52;;;;;;;79.55;35.13;;;;;;;;;;4452224;32;20033;-73
2023/01/21 11:52:17;;;;;;;;;;;;;;;;;;4445738;32;20059;-72
2023/01/21 11:54:42;;;;;;;80.43;34.70;;;;;;;;;;4436876;32;19947;-73
2023/01/21 11:57:18;;;;;;;68.45;32.88;;;;;;;;;;4447774;32;20052;-74
2023/01/21 11:59:44;;;;;;;68.32;31.62;;;;;;;;;;4453644;32;20021;-74
2023/01/21 12:02:20;;;;;;;66.25;31.92;;;;;;;;;;4436690;32;20051;-74
2023/01/21 12:04:50;;;;;;;66.68;31.15;;;;;;;;;;4452314;32;20100;-74
2023/01/21 12:07:20;;;;;;;73.82;35.00;;;;;;;;;;4437112;32;20464;-74
2023/01/21 12:09:50;;;;;;;72.18;33.70;;;;;;;;;;4451214;32;20041;-74
2023/01/21 12:12:41;;;;;;;81.80;34.85;;;;;;;;;;4440253;32;20018;-74
2023/01/21 12:15:27;;;;;;;77.95;35.50;;;;;;;;;;4422652;32;20053;-73
2023/01/21 12:18:03;;;;;;;75.28;34.78;;;;;;;;;;4454000;32;20029;-73
2023/01/21 12:20:46;;;;;;;76.55;33.90;;;;;;;;;;4455049;32;20021;-73
2023/01/21 12:23:17;;;;;;;80.00;34.38;;;;;;;;;;4438279;32;20493;-73
2023/01/21 12:26:11;;;;;;;79.82;35.58;;;;;;;;;;4452804;32;20034;-73
2023/01/21 12:28:47;;;;;;;74.75;34.47;;;;;;;;;;4434613;32;20033;-73
2023/01/21 12:31:20;;;;;;;83.27;35.87;;;;;;;;;;4436324;32;20029;-73
2023/01/21 12:34:08;;;;;;;71.22;33.42;;;;;;;;;;4451204;32;20025;-74
2023/01/21 12:36:42;;;;;;;81.90;35.58;;;;;;;;;;4451143;32;20030;-73
2023/01/21 12:39:13;;;;;;;73.85;33.63;;;;;;;;;;4451073;32;20026;-73
2023/01/21 12:41:40;;;;;;;81.70;36.58;;;;;;;;;;4430288;32;20068;-74
2023/01/21 12:44:41;;;;;;;76.32;34.90;;;;;;;;;;4447376;32;20096;-74
2023/01/21 12:47:25;;;;;;;86.70;38.72;;;;;;;;;;4368564;32;20038;-75
2023/01/21 12:49:54;;;;;;;72.87;34.58;;;;;;;;;;4433009;32;20063;-74
2023/01/21 12:52:30;;;;;;;76.62;34.45;;;;;;;;;;4439156;32;20377;-74
2023/01/21 12:55:11;;;;;;;72.70;35.25;;;;;;;;;;4424936;32;20055;-74
2023/01/21 12:57:38;;;;;;;63.72;30.23;;;;;;;;;;4424071;32;20108;-74
2023/01/21 13:00:20;;;;;;;61.83;29.85;;;;;;;;;;4437733;32;20026;-73
2023/01/21 13:03:11;;;;;;;67.55;32.50;;;;;;;;;;4426217;32;20056;-73
2023/01/21 13:05:40;;;;;;;50.88;27.10;;;;;;;;;;4395474;32;20029;-73
2023/01/21 13:08:21;;;;;;;46.40;26.75;;;;;;;;;;4438368;32;20045;-74
2023/01/21 13:10:48;;;;;;;43.58;25.27;;;;;;;;;;4438969;32;20380;-74
2023/01/21 13:13:19;;;;;;;52.92;29.67;;;;;;;;;;4429321;32;20026;-74
2023/01/21 13:15:46;;;;;;;54.30;29.10;;;;;;;;;;4453716;32;20109;-74
2023/01/21 13:18:14;;;;;;;60.20;32.17;;;;;;;;;;4453958;32;20076;-72
2023/01/21 13:20:42;;;;;;;62.53;31.77;;;;;;;;;;4454782;32;20396;-74
2023/01/21 13:23:16;;;;;;;62.17;32.38;;;;;;;;;;4455337;32;20021;-74
2023/01/21 13:25:42;;;;;;;65.25;32.00;;;;;;;;;;4455763;32;20079;-74
2023/01/21 13:28:07;;;;;;;;;;;;;;;;;;4439939;32;20033;-75
2023/01/21 13:30:40;;;;;;;62.35;31.73;;;;;;;;;;4453298;32;20400;-74
2023/01/21 13:33:15;;;;;;;86.87;35.78;;;;;;;;;;4453992;32;20113;-74
2023/01/21 13:35:44;;;;;;;62.28;31.80;;;;;;;;;;4455595;32;20022;-76
2023/01/21 13:38:17;;;;;;;56.08;28.92;;;;;;;;;;4441053;32;20028;-75
2023/01/21 13:40:51;;;;;;;57.67;30.08;;;;;;;;;;4456021;32;20036;-76
2023/01/21 13:43:16;;;;;;;64.12;31.08;;;;;;;;;;4456685;32;20025;-76
2023/01/21 13:45:42;;;;;;;;;;;;;;;;;;4456824;32;20082;-75
2023/01/21 13:48:16;;;;;;;64.80;28.67;;;;;;;;;;4445668;32;19943;-76
2023/01/21 13:50:45;;;;;;;77.68;33.42;;;;;;;;;;4440603;32;20141;-76
2023/01/21 13:53:16;;;;;;;71.07;31.37;;;;;;;;;;4437879;32;20033;-76
2023/01/21 13:55:41;;;;;;;73.75;32.58;;;;;;;;;;4423428;32;20077;-76
2023/01/21 13:58:06;;;;;;;;;;;;;;;;;;4437485;32;20017;-74
2023/01/21 14:00:34;;;;;;;71.12;30.45;;;;;;;;;;4437442;32;19972;-75
2023/01/21 14:03:05;;;;;;;66.50;30.33;;;;;;;;;;4423284;32;20114;-75
2023/01/21 14:05:37;;;;;;;81.12;32.17;;;;;;;;;;4450934;32;20101;-76
2023/01/21 14:08:12;;;;;;;67.50;31.87;;;;;;;;;;4457176;32;20029;-75
2023/01/21 14:10:40;;;;;;;60.42;28.50;;;;;;;;;;4439172;32;20417;-75
2023/01/21 14:13:16;;;;;;;75.35;31.62;;;;;;;;;;4439050;32;20085;-77
2023/01/21 14:15:41;;;;;;;122.90;34.40;;;;;;;;;;4453480;32;20123;-77
2023/01/21 14:18:06;;;;;;;;;;;;;;;;;;4454996;32;20021;-78
2023/01/21 14:20:37;;;;;;;67.95;27.75;;;;;;;;;;4439232;32;19936;-76
2023/01/21 14:23:09;;;;;;;97.10;35.13;;;;;;;;;;4453201;32;20044;-76
2023/01/21 14:25:53;;;;;;;85.40;33.35;;;;;;;;;;4453406;32;20017;-77
2023/01/21 14:28:33;;;;;;;94.57;34.97;;;;;;;;;;4438771;32;20029;-76
2023/01/21 14:31:10;;;;;;;84.00;32.95;;;;;;;;;;4453923;32;20049;-76
2023/01/21 14:33:45;;;;;;;115.30;34.15;;;;;;;;;;4453420;32;20029;-76
2023/01/21 14:36:16;;;;;;;79.97;31.00;;;;;;;;;;4454258;32;20020;-76
2023/01/21 14:38:53;;;;;;;78.75;33.00;;;;;;;;;;4452470;32;20293;-75
2023/01/21 14:41:19;;;;;;;87.37;30.33;;;;;;;;;;4453933;32;20034;-76
2023/01/21 14:43:45;;;;;;;;;;;;;;;;;;4454209;32;20134;-78
2023/01/21 14:46:27;;;;;;;90.87;28.08;;;;;;;;;;4452797;32;19932;-78
2023/01/21 14:49:10;;;;;;;100.87;32.38;;;;;;;;;;4439078;32;20474;-79
2023/01/21 14:51:37;;;;;;;82.20;31.50;;;;;;;;;;4436041;32;20078;-76